createdAt,value
2022-07-31T00:00:57.408Z,5.90
2022-07-31T00:01:57.396Z,6.20
2022-07-31T00:02:57.439Z,6.30
2022-07-31T00:03:57.451Z,6.50
2022-07-31T00:04:57.365Z,5.80
2022-07-31T00:05:57.354Z,5.90
2022-07-31T00:06:57.344Z,5.60
2022-07-31T00:07:57.332Z,5.80
2022-07-31T00:08:57.324Z,5.80
2022-07-31T00:09:57.316Z,5.50
2022-07-31T00:10:57.303Z,5.90
2022-07-31T00:11:57.288Z,5.70
2022-07-31T00:12:57.278Z,5.20
2022-07-31T00:13:58.779Z,5.70
2022-07-31T00:14:57.256Z,5.40
2022-07-31T00:15:57.245Z,5.50
2022-07-31T00:16:57.238Z,5.50
2022-07-31T00:17:57.221Z,6.00
2022-07-31T00:18:57.212Z,5.90
2022-07-31T00:19:57.200Z,5.80
2022-07-31T00:20:57.187Z,5.60
2022-07-31T00:21:57.176Z,6.00
2022-07-31T00:22:57.168Z,5.70
2022-07-31T00:23:57.154Z,5.40
2022-07-31T00:24:57.146Z,5.50
2022-07-31T00:25:57.131Z,5.80
2022-07-31T00:26:57.132Z,5.80
2022-07-31T00:27:57.109Z,5.90
2022-07-31T00:28:57.107Z,5.70
2022-07-31T00:29:57.089Z,5.40
2022-07-31T00:30:57.079Z,5.40
2022-07-31T00:31:57.066Z,5.80
2022-07-31T00:32:57.055Z,6.30
2022-07-31T00:33:57.042Z,6.00
2022-07-31T00:34:57.034Z,6.40
2022-07-31T00:35:57.020Z,6.10
2022-07-31T00:36:57.014Z,5.90
2022-07-31T00:38:24.807Z,5.40
2022-07-31T00:38:56.990Z,6.00
2022-07-31T00:39:56.977Z,5.90
2022-07-31T00:40:56.969Z,6.20
2022-07-31T00:41:56.954Z,5.90
2022-07-31T00:42:56.944Z,6.30
2022-07-31T00:43:56.932Z,6.50
2022-07-31T00:44:56.922Z,6.40
2022-07-31T00:45:59.021Z,7.10
2022-07-31T00:46:56.902Z,6.50
2022-07-31T00:47:56.887Z,6.80
2022-07-31T00:48:56.959Z,6.60
2022-07-31T00:49:56.865Z,6.60
2022-07-31T00:50:56.857Z,6.40
2022-07-31T00:51:56.844Z,6.50
2022-07-31T00:52:56.835Z,6.60
2022-07-31T00:53:56.823Z,6.20
2022-07-31T00:54:56.813Z,6.40
2022-07-31T00:55:56.800Z,5.80
2022-07-31T00:56:56.793Z,6.00
2022-07-31T00:57:56.780Z,5.80
2022-07-31T00:58:56.767Z,5.90
2022-07-31T00:59:56.755Z,6.60
2022-07-31T01:00:56.810Z,6.30
2022-07-31T01:01:56.733Z,6.10
2022-07-31T01:02:56.725Z,6.60
2022-07-31T01:03:56.711Z,6.30
2022-07-31T01:04:56.706Z,5.80
2022-07-31T01:05:56.688Z,5.90
2022-07-31T01:06:56.678Z,5.90
2022-07-31T01:07:56.670Z,6.40
2022-07-31T01:08:56.658Z,5.60
2022-07-31T01:09:56.651Z,6.20
2022-07-31T01:10:56.636Z,6.20
2022-07-31T01:11:56.626Z,6.90
2022-07-31T01:12:56.614Z,7.80
2022-07-31T01:13:56.603Z,8.10
2022-07-31T01:14:56.595Z,8.40
2022-07-31T01:15:56.580Z,7.60
2022-07-31T01:16:56.569Z,7.90
2022-07-31T01:17:56.562Z,9.10
2022-07-31T01:18:56.551Z,9.20
2022-07-31T01:19:56.536Z,7.60
2022-07-31T01:20:56.526Z,7.50
2022-07-31T01:21:56.527Z,8.50
2022-07-31T01:22:56.503Z,8.60
2022-07-31T01:23:56.496Z,8.80
2022-07-31T01:24:56.481Z,8.70
2022-07-31T01:25:56.470Z,8.90
2022-07-31T01:26:56.460Z,9.60
2022-07-31T01:27:56.450Z,9.40
2022-07-31T01:28:56.439Z,10.10
2022-07-31T01:29:56.427Z,9.50
2022-07-31T01:31:17.074Z,11.80
2022-07-31T01:31:57.463Z,11.40
2022-07-31T01:32:56.397Z,11.20
2022-07-31T01:33:56.384Z,11.00
2022-07-31T01:34:56.377Z,11.10
2022-07-31T01:35:56.364Z,10.50
2022-07-31T01:36:56.353Z,10.90
2022-07-31T01:37:56.345Z,10.20
2022-07-31T01:38:56.333Z,10.70
2022-07-31T01:39:56.323Z,10.80
2022-07-31T01:40:56.311Z,10.10
2022-07-31T01:41:56.302Z,10.40
2022-07-31T01:42:56.295Z,10.20
2022-07-31T01:43:56.274Z,10.80
2022-07-31T01:44:56.266Z,10.70
2022-07-31T01:45:56.257Z,9.90
2022-07-31T01:46:56.250Z,10.30
2022-07-31T01:47:56.233Z,11.90
2022-07-31T01:48:56.322Z,11.10
2022-07-31T01:49:56.213Z,10.90
2022-07-31T01:50:56.201Z,11.10
2022-07-31T01:51:56.190Z,9.80
2022-07-31T01:52:57.205Z,11.00
2022-07-31T01:53:56.167Z,10.10
2022-07-31T01:54:56.157Z,11.10
2022-07-31T01:55:56.371Z,11.20
2022-07-31T01:56:56.137Z,9.40
2022-07-31T01:57:56.123Z,9.60
2022-07-31T01:58:56.113Z,9.80
2022-07-31T01:59:56.100Z,10.00
2022-07-31T02:00:56.125Z,10.00
2022-07-31T02:01:56.080Z,10.50
2022-07-31T02:02:56.073Z,9.90
2022-07-31T02:03:56.286Z,9.50
2022-07-31T02:04:56.052Z,10.20
2022-07-31T02:05:56.035Z,9.70
2022-07-31T02:06:56.027Z,9.60
2022-07-31T02:07:56.012Z,9.80
2022-07-31T02:08:56.001Z,10.30
2022-07-31T02:09:58.698Z,10.00
2022-07-31T02:10:55.981Z,9.50
2022-07-31T02:11:55.968Z,8.90
2022-07-31T02:12:55.961Z,9.80
2022-07-31T02:13:55.947Z,9.50
2022-07-31T02:14:55.937Z,9.20
2022-07-31T02:15:55.927Z,8.60
2022-07-31T02:16:55.913Z,8.10
2022-07-31T02:17:55.903Z,8.60
2022-07-31T02:18:55.891Z,9.20
2022-07-31T02:20:00.389Z,9.00
2022-07-31T02:20:55.866Z,9.00
2022-07-31T02:21:55.861Z,9.70
2022-07-31T02:22:55.855Z,9.10
2022-07-31T02:23:55.837Z,8.80
2022-07-31T02:24:55.824Z,9.70
2022-07-31T02:25:55.815Z,8.70
2022-07-31T02:26:55.802Z,10.20
2022-07-31T02:27:58.781Z,8.80
2022-07-31T02:28:55.782Z,8.70
2022-07-31T02:29:55.772Z,8.80
2022-07-31T02:30:55.756Z,8.50
2022-07-31T02:32:01.800Z,8.80
2022-07-31T02:32:55.736Z,9.30
2022-07-31T02:33:55.726Z,8.40
2022-07-31T02:34:55.713Z,9.00
2022-07-31T02:35:55.700Z,9.40
2022-07-31T02:36:55.690Z,8.80
2022-07-31T02:37:55.683Z,8.10
2022-07-31T02:38:55.671Z,9.10
2022-07-31T02:39:55.659Z,9.20
2022-07-31T02:40:55.648Z,9.00
2022-07-31T02:41:55.636Z,9.90
2022-07-31T02:42:55.629Z,9.60
2022-07-31T02:43:55.619Z,8.70
2022-07-31T02:44:55.601Z,8.50
2022-07-31T02:45:55.593Z,8.90
2022-07-31T02:46:55.581Z,9.50
2022-07-31T02:47:55.573Z,9.20
2022-07-31T02:48:55.593Z,9.50
2022-07-31T02:49:55.554Z,9.50
2022-07-31T02:50:55.639Z,9.40
2022-07-31T02:51:55.528Z,10.00
2022-07-31T02:52:55.519Z,9.20
2022-07-31T02:53:55.508Z,9.20
2022-07-31T02:54:55.498Z,10.20
2022-07-31T02:55:55.485Z,9.60
2022-07-31T02:56:55.473Z,9.70
2022-07-31T02:57:55.464Z,8.80
2022-07-31T02:58:55.450Z,8.90
2022-07-31T02:59:55.446Z,9.90
2022-07-31T03:00:55.469Z,9.70
2022-07-31T03:01:55.418Z,9.50
2022-07-31T03:02:55.406Z,10.70
2022-07-31T03:03:55.400Z,11.40
2022-07-31T03:04:55.385Z,8.20
2022-07-31T03:05:55.374Z,9.20
2022-07-31T03:06:55.363Z,9.30
2022-07-31T03:07:55.353Z,9.80
2022-07-31T03:08:55.341Z,10.20
2022-07-31T03:09:55.332Z,9.20
2022-07-31T03:10:55.321Z,9.50
2022-07-31T03:11:55.327Z,9.60
2022-07-31T03:12:55.298Z,8.60
2022-07-31T03:13:55.287Z,8.70
2022-07-31T03:14:55.280Z,9.20
2022-07-31T03:15:55.266Z,9.90
2022-07-31T03:16:55.254Z,9.40
2022-07-31T03:17:55.246Z,9.10
2022-07-31T03:18:55.234Z,9.30
2022-07-31T03:19:55.222Z,9.60
2022-07-31T03:20:55.208Z,9.90
2022-07-31T03:21:55.202Z,8.10
2022-07-31T03:22:55.186Z,8.20
2022-07-31T03:23:55.190Z,8.50
2022-07-31T03:24:55.163Z,7.80
2022-07-31T03:25:55.158Z,7.80
2022-07-31T03:26:55.142Z,6.90
2022-07-31T03:27:56.152Z,7.10
2022-07-31T03:28:55.119Z,8.20
2022-07-31T03:29:55.109Z,7.80
2022-07-31T03:30:56.581Z,7.50
2022-07-31T03:31:55.089Z,7.20
2022-07-31T03:32:55.077Z,7.60
2022-07-31T03:33:55.064Z,7.90
2022-07-31T03:34:55.054Z,7.90
2022-07-31T03:35:55.041Z,7.40
2022-07-31T03:36:55.032Z,7.20
2022-07-31T03:37:55.022Z,7.50
2022-07-31T03:38:55.010Z,7.60
2022-07-31T03:39:54.998Z,7.70
2022-07-31T03:40:54.987Z,8.20
2022-07-31T03:41:54.978Z,7.60
2022-07-31T03:42:54.964Z,7.80
2022-07-31T03:43:54.954Z,8.90
2022-07-31T03:44:54.943Z,8.40
2022-07-31T03:45:54.933Z,8.40
2022-07-31T03:46:54.920Z,7.20
2022-07-31T03:47:54.910Z,6.80
2022-07-31T03:48:54.924Z,6.90
2022-07-31T03:49:54.890Z,6.70
2022-07-31T03:50:54.876Z,6.90
2022-07-31T03:51:54.868Z,6.60
2022-07-31T03:52:54.853Z,6.70
2022-07-31T03:53:54.842Z,7.00
2022-07-31T03:54:54.840Z,6.80
2022-07-31T03:55:54.827Z,6.60
2022-07-31T03:56:54.816Z,5.80
2022-07-31T03:57:54.802Z,6.20
2022-07-31T03:58:54.787Z,6.30
2022-07-31T03:59:54.779Z,6.90
2022-07-31T04:00:54.772Z,6.90
2022-07-31T04:02:07.564Z,6.70
2022-07-31T04:02:54.840Z,6.40
2022-07-31T04:03:54.732Z,6.50
2022-07-31T04:04:54.725Z,6.30
2022-07-31T04:05:54.715Z,6.50
2022-07-31T04:06:54.700Z,6.90
2022-07-31T04:07:54.690Z,6.60
2022-07-31T04:08:54.675Z,6.80
2022-07-31T04:09:54.674Z,7.20
2022-07-31T04:10:54.656Z,7.00
2022-07-31T04:11:54.645Z,6.90
2022-07-31T04:12:54.634Z,6.70
2022-07-31T04:13:54.623Z,6.00
2022-07-31T04:14:54.613Z,6.50
2022-07-31T04:15:54.606Z,6.70
2022-07-31T04:16:54.591Z,6.40
2022-07-31T04:17:54.584Z,6.20
2022-07-31T04:18:54.567Z,6.10
2022-07-31T04:19:54.562Z,6.10
2022-07-31T04:20:54.543Z,5.50
2022-07-31T04:21:54.538Z,5.80
2022-07-31T04:22:55.745Z,5.60
2022-07-31T04:23:54.512Z,5.40
2022-07-31T04:24:54.541Z,5.30
2022-07-31T04:25:54.502Z,5.40
2022-07-31T04:26:54.494Z,5.10
2022-07-31T04:27:54.466Z,5.10
2022-07-31T04:28:54.469Z,4.60
2022-07-31T04:29:54.447Z,4.50
2022-07-31T04:30:54.438Z,4.40
2022-07-31T04:31:54.423Z,4.10
2022-07-31T04:32:54.412Z,4.40
2022-07-31T04:33:56.741Z,4.50
2022-07-31T04:34:54.390Z,4.20
2022-07-31T04:35:54.379Z,4.10
2022-07-31T04:36:54.368Z,4.10
2022-07-31T04:37:54.367Z,3.70
2022-07-31T04:38:54.344Z,4.20
2022-07-31T04:39:54.339Z,3.50
2022-07-31T04:40:54.346Z,3.40
2022-07-31T04:41:54.312Z,3.50
2022-07-31T04:42:54.308Z,3.40
2022-07-31T04:43:54.313Z,3.70
2022-07-31T04:44:54.311Z,3.10
2022-07-31T04:45:54.317Z,3.20
2022-07-31T04:46:54.282Z,3.20
2022-07-31T04:47:54.274Z,2.90
2022-07-31T04:48:54.308Z,3.10
2022-07-31T04:49:54.226Z,3.00
2022-07-31T04:50:54.216Z,2.90
2022-07-31T04:51:54.206Z,2.70
2022-07-31T04:52:54.190Z,3.00
2022-07-31T04:53:54.183Z,3.10
2022-07-31T04:54:54.172Z,2.70
2022-07-31T04:55:54.161Z,2.70
2022-07-31T04:56:54.150Z,3.10
2022-07-31T04:57:54.142Z,2.60
2022-07-31T04:58:54.135Z,2.90
2022-07-31T04:59:59.092Z,2.70
2022-07-31T05:00:55.168Z,2.90
2022-07-31T05:01:54.312Z,3.20
2022-07-31T05:02:54.107Z,3.00
2022-07-31T05:03:54.128Z,3.00
2022-07-31T05:04:57.160Z,3.10
2022-07-31T05:05:54.054Z,3.10
2022-07-31T05:06:54.041Z,2.90
2022-07-31T05:07:54.035Z,2.60
2022-07-31T05:08:54.021Z,3.30
2022-07-31T05:09:54.010Z,2.90
2022-07-31T05:10:53.997Z,3.10
2022-07-31T05:11:53.987Z,3.10
2022-07-31T05:12:53.978Z,3.00
2022-07-31T05:13:53.974Z,3.00
2022-07-31T05:14:53.954Z,2.80
2022-07-31T05:15:53.951Z,2.90
2022-07-31T05:16:53.932Z,3.40
2022-07-31T05:17:53.924Z,3.00
2022-07-31T05:18:53.909Z,3.00
2022-07-31T05:19:53.906Z,3.00
2022-07-31T05:20:53.893Z,3.20
2022-07-31T05:21:56.300Z,3.60
2022-07-31T05:22:53.869Z,3.30
2022-07-31T05:23:53.877Z,3.20
2022-07-31T05:24:53.861Z,3.20
2022-07-31T05:25:53.896Z,3.20
2022-07-31T05:26:53.868Z,3.10
2022-07-31T05:27:53.818Z,3.00
2022-07-31T05:28:58.151Z,3.40
2022-07-31T05:29:53.796Z,3.20
2022-07-31T05:30:53.780Z,3.20
2022-07-31T05:32:10.058Z,2.60
2022-07-31T05:32:53.760Z,3.60
2022-07-31T05:33:53.749Z,3.00
2022-07-31T05:34:53.739Z,2.80
2022-07-31T05:35:53.727Z,2.80
2022-07-31T05:36:53.719Z,3.00
2022-07-31T05:37:53.712Z,3.20
2022-07-31T05:38:53.697Z,2.90
2022-07-31T05:39:53.687Z,2.70
2022-07-31T05:40:53.672Z,2.70
2022-07-31T05:41:53.664Z,2.90
2022-07-31T05:42:53.650Z,2.90
2022-07-31T05:43:53.639Z,2.70
2022-07-31T05:44:53.630Z,3.00
2022-07-31T05:45:53.632Z,3.00
2022-07-31T05:47:18.046Z,3.60
2022-07-31T05:48:18.040Z,3.30
2022-07-31T05:49:18.210Z,3.50
2022-07-31T05:50:18.041Z,3.30
2022-07-31T05:51:18.014Z,2.90
2022-07-31T05:52:18.022Z,3.20
2022-07-31T05:53:17.996Z,3.30
2022-07-31T05:54:17.977Z,2.90
2022-07-31T05:55:18.016Z,3.00
2022-07-31T05:56:17.946Z,3.40
2022-07-31T05:57:33.801Z,3.10
2022-07-31T05:58:18.955Z,3.30
2022-07-31T05:59:17.918Z,3.20
2022-07-31T06:00:17.906Z,3.00
2022-07-31T06:01:17.933Z,2.90
2022-07-31T06:02:17.885Z,2.70
2022-07-31T06:03:17.875Z,2.90
2022-07-31T06:04:17.861Z,2.90
2022-07-31T06:05:17.855Z,3.50
2022-07-31T06:06:17.839Z,3.20
2022-07-31T06:07:17.828Z,3.30
2022-07-31T06:08:17.818Z,2.80
2022-07-31T06:09:17.812Z,3.00
2022-07-31T06:10:17.799Z,2.70
2022-07-31T06:11:17.790Z,3.00
2022-07-31T06:12:17.774Z,2.80
2022-07-31T06:13:17.780Z,2.60
2022-07-31T06:14:17.821Z,2.40
2022-07-31T06:15:17.772Z,2.50
2022-07-31T06:16:17.760Z,2.30
2022-07-31T06:17:17.720Z,2.30
2022-07-31T06:18:17.718Z,2.30
2022-07-31T06:19:17.702Z,2.50
2022-07-31T06:20:17.687Z,2.20
2022-07-31T06:21:42.108Z,2.30
2022-07-31T06:22:42.090Z,2.20
2022-07-31T06:23:42.082Z,2.20
2022-07-31T06:24:43.397Z,1.80
2022-07-31T06:25:42.057Z,1.90
2022-07-31T06:26:42.048Z,2.00
2022-07-31T06:27:42.035Z,2.30
2022-07-31T06:28:48.537Z,1.90
2022-07-31T06:29:42.421Z,2.00
2022-07-31T06:30:42.004Z,1.90
2022-07-31T06:31:41.991Z,1.80
2022-07-31T06:32:41.979Z,2.00
2022-07-31T06:33:41.970Z,2.40
2022-07-31T06:34:41.956Z,1.80
2022-07-31T06:35:41.949Z,1.90
2022-07-31T06:36:41.940Z,2.10
2022-07-31T06:37:41.925Z,1.90
2022-07-31T06:38:41.911Z,1.70
2022-07-31T06:39:55.752Z,1.70
2022-07-31T06:40:41.941Z,2.60
2022-07-31T06:41:41.914Z,2.10
2022-07-31T06:42:41.896Z,2.10
2022-07-31T06:43:41.875Z,1.60
2022-07-31T06:44:46.287Z,1.90
2022-07-31T06:45:51.928Z,2.00
2022-07-31T06:46:48.711Z,2.20
2022-07-31T06:47:42.842Z,2.30
2022-07-31T06:48:41.801Z,2.20
2022-07-31T06:49:41.938Z,2.40
2022-07-31T06:50:41.810Z,1.90
2022-07-31T06:51:41.815Z,2.50
2022-07-31T06:52:41.797Z,2.10
2022-07-31T06:53:41.802Z,2.40
2022-07-31T06:54:41.763Z,2.70
2022-07-31T06:55:44.763Z,2.60
2022-07-31T06:56:41.716Z,2.20
2022-07-31T06:57:41.708Z,2.30
2022-07-31T06:58:41.696Z,2.40
2022-07-31T06:59:41.682Z,1.90
2022-07-31T07:00:41.670Z,2.70
2022-07-31T07:01:41.704Z,2.70
2022-07-31T07:02:41.666Z,2.20
2022-07-31T07:03:41.751Z,2.50
2022-07-31T07:05:04.527Z,2.30
2022-07-31T07:05:45.361Z,2.30
2022-07-31T07:06:41.607Z,2.20
2022-07-31T07:07:41.652Z,2.30
2022-07-31T07:08:42.147Z,2.00
2022-07-31T07:09:41.575Z,2.00
2022-07-31T07:10:41.642Z,2.90
2022-07-31T07:11:41.554Z,2.40
2022-07-31T07:12:41.545Z,2.50
2022-07-31T07:13:46.367Z,2.40
2022-07-31T07:14:41.522Z,2.60
2022-07-31T07:15:41.517Z,2.20
2022-07-31T07:16:41.496Z,2.70
2022-07-31T07:17:41.485Z,2.30
2022-07-31T07:18:41.481Z,2.10
2022-07-31T07:19:41.464Z,2.40
2022-07-31T07:20:41.452Z,2.30
2022-07-31T07:21:41.440Z,2.30
2022-07-31T07:22:41.432Z,2.70
2022-07-31T07:23:41.419Z,2.00
2022-07-31T07:24:41.406Z,2.00
2022-07-31T07:25:41.415Z,2.10
2022-07-31T07:26:41.401Z,1.90
2022-07-31T07:27:41.406Z,1.80
2022-07-31T07:28:41.381Z,2.00
2022-07-31T07:29:41.352Z,1.90
2022-07-31T07:30:41.343Z,1.90
2022-07-31T07:31:41.332Z,1.80
2022-07-31T07:32:41.323Z,1.90
2022-07-31T07:33:42.865Z,1.60
2022-07-31T07:34:41.295Z,2.20
2022-07-31T07:35:41.285Z,2.20
2022-07-31T07:36:41.273Z,2.00
2022-07-31T07:37:41.264Z,2.00
2022-07-31T07:38:41.251Z,1.90
2022-07-31T07:39:41.239Z,1.90
2022-07-31T07:40:41.228Z,2.10
2022-07-31T07:41:41.218Z,1.90
2022-07-31T07:42:41.208Z,1.80
2022-07-31T07:43:41.198Z,2.20
2022-07-31T07:44:41.184Z,1.80
2022-07-31T07:45:41.175Z,1.90
2022-07-31T07:46:41.162Z,1.90
2022-07-31T07:48:05.435Z,1.90
2022-07-31T07:48:41.167Z,1.60
2022-07-31T07:49:41.381Z,1.70
2022-07-31T07:50:41.167Z,1.80
2022-07-31T07:51:58.370Z,1.80
2022-07-31T07:52:43.960Z,2.30
2022-07-31T07:53:41.097Z,1.60
2022-07-31T07:54:41.079Z,1.60
2022-07-31T07:55:41.068Z,2.30
2022-07-31T07:56:41.057Z,1.80
2022-07-31T07:57:41.047Z,1.90
2022-07-31T07:58:41.040Z,1.80
2022-07-31T07:59:41.024Z,2.10
2022-07-31T08:00:41.115Z,1.80
2022-07-31T08:01:41.052Z,1.60
2022-07-31T08:02:40.992Z,1.80
2022-07-31T08:03:48.885Z,1.70
2022-07-31T08:04:44.656Z,1.70
2022-07-31T08:05:41.985Z,1.90
2022-07-31T08:06:40.947Z,1.90
2022-07-31T08:07:41.776Z,1.90
2022-07-31T08:08:40.926Z,1.70
2022-07-31T08:09:40.915Z,1.70
2022-07-31T08:10:40.918Z,1.90
2022-07-31T08:11:40.935Z,1.70
2022-07-31T08:12:40.890Z,2.10
2022-07-31T08:13:41.059Z,1.70
2022-07-31T08:14:40.857Z,1.60
2022-07-31T08:15:40.849Z,1.70
2022-07-31T08:16:40.845Z,1.60
2022-07-31T08:17:40.828Z,1.60
2022-07-31T08:18:40.816Z,1.80
2022-07-31T08:19:40.808Z,1.90
2022-07-31T08:20:40.794Z,2.00
2022-07-31T08:21:40.782Z,2.20
2022-07-31T08:22:40.774Z,1.60
2022-07-31T08:23:40.764Z,2.00
2022-07-31T08:24:40.754Z,1.80
2022-07-31T08:25:40.742Z,1.90
2022-07-31T08:26:40.735Z,1.80
2022-07-31T08:27:40.820Z,1.80
2022-07-31T08:28:40.711Z,1.70
2022-07-31T08:29:40.700Z,1.60
2022-07-31T08:30:40.690Z,1.50
2022-07-31T08:31:40.677Z,1.70
2022-07-31T08:32:41.697Z,2.10
2022-07-31T08:33:40.852Z,1.70
2022-07-31T08:34:42.214Z,1.80
2022-07-31T08:35:40.655Z,1.70
2022-07-31T08:36:40.620Z,1.80
2022-07-31T08:37:59.319Z,1.80
2022-07-31T08:38:40.599Z,1.80
2022-07-31T08:39:40.588Z,2.00
2022-07-31T08:40:43.005Z,1.90
2022-07-31T08:41:40.567Z,1.80
2022-07-31T08:42:40.555Z,1.90
2022-07-31T08:44:03.288Z,2.20
2022-07-31T08:44:40.543Z,1.90
2022-07-31T08:45:40.638Z,2.10
2022-07-31T08:46:40.513Z,2.20
2022-07-31T08:47:40.502Z,1.90
2022-07-31T08:48:40.629Z,2.10
2022-07-31T08:49:40.532Z,1.80
2022-07-31T08:50:40.580Z,1.80
2022-07-31T08:51:51.030Z,1.80
2022-07-31T08:52:41.478Z,1.90
2022-07-31T08:53:40.441Z,2.00
2022-07-31T08:54:40.428Z,1.60
2022-07-31T08:55:56.539Z,1.80
2022-07-31T08:56:40.537Z,1.90
2022-07-31T08:57:40.628Z,1.90
2022-07-31T08:58:40.607Z,1.90
2022-07-31T08:59:40.394Z,1.80
2022-07-31T09:00:40.419Z,1.70
2022-07-31T09:01:40.519Z,1.70
2022-07-31T09:02:40.346Z,1.70
2022-07-31T09:03:40.336Z,1.60
2022-07-31T09:04:40.324Z,1.60
2022-07-31T09:05:42.174Z,1.70
2022-07-31T09:06:40.303Z,1.70
2022-07-31T09:07:40.291Z,1.50
2022-07-31T09:08:40.286Z,1.60
2022-07-31T09:09:50.982Z,1.40
2022-07-31T09:10:40.260Z,1.70
2022-07-31T09:11:40.251Z,1.60
2022-07-31T09:12:40.243Z,1.60
2022-07-31T09:13:40.232Z,1.30
2022-07-31T09:14:40.220Z,1.50
2022-07-31T09:15:40.210Z,1.80
2022-07-31T09:16:40.200Z,1.70
2022-07-31T09:17:40.189Z,1.60
2022-07-31T09:18:40.188Z,2.00
2022-07-31T09:19:54.257Z,1.50
2022-07-31T09:20:41.195Z,1.40
2022-07-31T09:21:40.170Z,1.70
2022-07-31T09:22:40.136Z,1.70
2022-07-31T09:23:40.122Z,1.90
2022-07-31T09:24:40.115Z,1.70
2022-07-31T09:25:40.101Z,1.50
2022-07-31T09:26:40.094Z,1.60
2022-07-31T09:27:40.082Z,1.60
2022-07-31T09:28:40.077Z,1.50
2022-07-31T09:29:40.060Z,1.60
2022-07-31T09:30:56.077Z,1.60
2022-07-31T09:31:40.038Z,1.70
2022-07-31T09:32:40.029Z,1.40
2022-07-31T09:33:45.221Z,1.40
2022-07-31T09:34:40.027Z,1.70
2022-07-31T09:35:39.997Z,1.70
2022-07-31T09:36:39.986Z,1.40
2022-07-31T09:37:39.976Z,1.80
2022-07-31T09:38:39.965Z,1.80
2022-07-31T09:39:50.148Z,1.80
2022-07-31T09:40:57.142Z,1.60
2022-07-31T09:42:00.885Z,1.60
2022-07-31T09:42:45.705Z,1.70
2022-07-31T09:43:51.750Z,1.50
2022-07-31T09:44:39.940Z,1.90
2022-07-31T09:45:48.146Z,1.70
2022-07-31T09:46:40.907Z,1.80
2022-07-31T09:47:39.870Z,2.00
2022-07-31T09:48:39.860Z,1.70
2022-07-31T09:49:39.967Z,1.80
2022-07-31T09:50:39.840Z,1.80
2022-07-31T09:51:39.828Z,1.80
2022-07-31T09:52:39.817Z,2.00
2022-07-31T09:53:43.356Z,1.60
2022-07-31T09:54:40.001Z,2.00
2022-07-31T09:55:39.784Z,1.60
2022-07-31T09:56:39.773Z,2.00
2022-07-31T09:57:39.763Z,1.80
2022-07-31T09:58:41.267Z,1.80
2022-07-31T09:59:39.739Z,1.70
2022-07-31T10:00:39.789Z,1.80
2022-07-31T10:01:39.716Z,1.70
2022-07-31T10:02:39.709Z,1.80
2022-07-31T10:03:39.696Z,1.60
2022-07-31T10:04:39.688Z,1.90
2022-07-31T10:05:39.709Z,1.60
2022-07-31T10:06:39.696Z,1.80
2022-07-31T10:07:39.665Z,1.80
2022-07-31T10:08:39.640Z,1.70
2022-07-31T10:09:39.631Z,1.80
2022-07-31T10:10:39.621Z,1.80
2022-07-31T10:11:39.611Z,1.70
2022-07-31T10:12:39.600Z,1.90
2022-07-31T10:13:40.582Z,1.90
2022-07-31T10:14:39.576Z,1.70
2022-07-31T10:15:39.567Z,1.80
2022-07-31T10:16:39.556Z,1.80
2022-07-31T10:17:39.570Z,1.70
2022-07-31T10:18:44.133Z,1.90
2022-07-31T10:19:39.523Z,1.70
2022-07-31T10:20:39.515Z,1.80
2022-07-31T10:21:39.505Z,1.50
2022-07-31T10:22:39.495Z,1.70
2022-07-31T10:23:39.484Z,1.90
2022-07-31T10:24:39.476Z,1.90
2022-07-31T10:25:39.460Z,1.90
2022-07-31T10:26:59.636Z,1.80
2022-07-31T10:27:40.477Z,2.00
2022-07-31T10:28:39.454Z,1.80
2022-07-31T10:29:39.655Z,1.80
2022-07-31T10:30:39.414Z,1.60
2022-07-31T10:31:39.403Z,2.00
2022-07-31T10:32:39.390Z,2.00
2022-07-31T10:33:44.579Z,1.60
2022-07-31T10:34:39.365Z,1.90
2022-07-31T10:35:39.354Z,1.70
2022-07-31T10:36:39.343Z,1.80
2022-07-31T10:37:39.332Z,2.10
2022-07-31T10:38:39.322Z,2.10
2022-07-31T10:39:39.311Z,1.80
2022-07-31T10:40:39.305Z,2.00
2022-07-31T10:41:39.296Z,1.70
2022-07-31T10:42:39.278Z,1.90
2022-07-31T10:43:39.267Z,1.80
2022-07-31T10:44:39.261Z,1.60
2022-07-31T10:45:39.251Z,1.60
2022-07-31T10:46:39.238Z,1.70
2022-07-31T10:47:39.227Z,2.00
2022-07-31T10:48:40.270Z,1.70
2022-07-31T10:49:39.328Z,1.50
2022-07-31T10:50:39.253Z,2.20
2022-07-31T10:51:39.211Z,1.70
2022-07-31T10:52:39.221Z,2.40
2022-07-31T10:53:50.487Z,2.20
2022-07-31T10:54:39.157Z,2.20
2022-07-31T10:55:39.144Z,2.00
2022-07-31T10:56:39.138Z,2.00
2022-07-31T10:57:57.163Z,2.10
2022-07-31T10:58:40.142Z,2.40
2022-07-31T10:59:42.958Z,2.10
2022-07-31T11:00:39.115Z,2.10
2022-07-31T11:01:39.113Z,2.00
2022-07-31T11:02:39.077Z,1.90
2022-07-31T11:03:39.062Z,2.30
2022-07-31T11:04:39.056Z,2.20
2022-07-31T11:06:01.587Z,2.10
2022-07-31T11:06:39.042Z,2.10
2022-07-31T11:07:39.022Z,2.80
2022-07-31T11:08:39.012Z,2.20
2022-07-31T11:09:50.338Z,2.10
2022-07-31T11:10:38.992Z,2.00
2022-07-31T11:11:38.992Z,2.10
2022-07-31T11:12:39.006Z,2.50
2022-07-31T11:13:38.982Z,2.40
2022-07-31T11:14:38.965Z,2.10
2022-07-31T11:15:38.939Z,2.20
2022-07-31T11:16:38.928Z,2.10
2022-07-31T11:18:22.056Z,2.30
2022-07-31T11:18:39.932Z,2.20
2022-07-31T11:19:41.432Z,2.10
2022-07-31T11:20:38.886Z,2.20
2022-07-31T11:21:39.884Z,1.90
2022-07-31T11:22:38.950Z,2.10
2022-07-31T11:23:38.860Z,1.90
2022-07-31T11:24:38.849Z,2.10
2022-07-31T11:25:38.834Z,2.00
2022-07-31T11:26:41.267Z,2.60
2022-07-31T11:27:38.814Z,1.70
2022-07-31T11:28:38.802Z,2.00
2022-07-31T11:30:01.735Z,1.80
2022-07-31T11:30:39.809Z,1.80
2022-07-31T11:31:38.773Z,2.00
2022-07-31T11:32:38.807Z,1.90
2022-07-31T11:33:42.221Z,1.80
2022-07-31T11:34:38.746Z,1.90
2022-07-31T11:35:38.766Z,2.00
2022-07-31T11:36:38.810Z,1.90
2022-07-31T11:37:56.315Z,1.80
2022-07-31T11:38:38.700Z,2.10
2022-07-31T11:39:38.688Z,2.10
2022-07-31T11:40:38.683Z,2.00
2022-07-31T11:41:43.920Z,2.00
2022-07-31T11:42:38.658Z,1.80
2022-07-31T11:43:38.648Z,1.90
2022-07-31T11:44:38.650Z,1.70
2022-07-31T11:45:38.908Z,1.60
2022-07-31T11:46:38.618Z,1.80
2022-07-31T11:48:12.603Z,1.80
2022-07-31T11:48:44.900Z,1.60
2022-07-31T11:49:47.819Z,1.80
2022-07-31T11:50:38.572Z,2.10
2022-07-31T11:51:38.562Z,1.90
2022-07-31T11:52:38.557Z,2.20
2022-07-31T11:53:38.540Z,2.00
2022-07-31T11:54:38.534Z,2.20
2022-07-31T11:55:38.522Z,2.00
2022-07-31T11:56:38.562Z,2.00
2022-07-31T11:57:51.168Z,1.90
2022-07-31T11:58:38.528Z,1.70
2022-07-31T11:59:46.264Z,1.90
2022-07-31T12:00:39.494Z,1.80
2022-07-31T12:01:40.733Z,1.80
2022-07-31T12:02:38.500Z,1.90
2022-07-31T12:03:38.441Z,1.80
2022-07-31T12:04:38.433Z,2.20
2022-07-31T12:05:39.509Z,2.10
2022-07-31T12:06:38.408Z,2.00
2022-07-31T12:07:38.397Z,1.90
2022-07-31T12:08:38.387Z,1.70
2022-07-31T12:10:01.813Z,1.80
2022-07-31T12:10:38.367Z,2.00
2022-07-31T12:11:38.355Z,1.90
2022-07-31T12:12:38.344Z,1.80
2022-07-31T12:13:38.500Z,1.90
2022-07-31T12:14:38.321Z,1.70
2022-07-31T12:15:38.311Z,2.20
2022-07-31T12:16:38.304Z,2.00
2022-07-31T12:17:38.290Z,1.80
2022-07-31T12:18:38.290Z,1.70
2022-07-31T12:19:38.790Z,1.60
2022-07-31T12:20:38.306Z,1.80
2022-07-31T12:21:38.292Z,1.70
2022-07-31T12:22:38.288Z,2.20
2022-07-31T12:23:38.684Z,1.80
2022-07-31T12:24:38.217Z,1.60
2022-07-31T12:25:38.207Z,2.00
2022-07-31T12:26:38.201Z,2.40
2022-07-31T12:27:38.182Z,2.40
2022-07-31T12:28:38.176Z,2.40
2022-07-31T12:29:38.163Z,2.20
2022-07-31T12:30:38.160Z,2.20
2022-07-31T12:31:38.141Z,2.40
2022-07-31T12:32:38.131Z,2.70
2022-07-31T12:33:38.123Z,2.80
2022-07-31T12:34:38.114Z,2.80
2022-07-31T12:35:55.636Z,2.80
2022-07-31T12:36:38.090Z,2.90
2022-07-31T12:37:38.089Z,3.20
2022-07-31T12:38:44.910Z,3.30
2022-07-31T12:39:47.784Z,3.30
2022-07-31T12:40:38.159Z,3.40
2022-07-31T12:41:38.334Z,3.30
2022-07-31T12:42:41.895Z,3.70
2022-07-31T12:43:38.031Z,3.60
2022-07-31T12:44:38.049Z,3.00
2022-07-31T12:45:37.990Z,3.40
2022-07-31T12:46:37.981Z,3.50
2022-07-31T12:47:37.967Z,4.40
2022-07-31T12:48:41.121Z,4.50
2022-07-31T12:49:38.037Z,4.80
2022-07-31T12:50:37.936Z,4.50
2022-07-31T12:51:46.128Z,4.60
2022-07-31T12:52:37.912Z,4.30
2022-07-31T12:53:37.908Z,4.40
2022-07-31T12:54:39.585Z,4.80
2022-07-31T12:55:37.885Z,4.00
2022-07-31T12:56:37.880Z,4.90
2022-07-31T12:57:47.865Z,4.80
2022-07-31T12:58:37.852Z,4.20
2022-07-31T12:59:37.841Z,4.90
2022-07-31T13:00:40.141Z,5.20
2022-07-31T13:01:37.949Z,4.80
2022-07-31T13:02:37.811Z,4.20
2022-07-31T13:03:45.956Z,4.90
2022-07-31T13:04:37.786Z,5.00
2022-07-31T13:05:37.777Z,5.10
2022-07-31T13:06:37.820Z,5.10
2022-07-31T13:07:37.766Z,5.00
2022-07-31T13:08:37.789Z,5.60
2022-07-31T13:09:37.731Z,4.50
2022-07-31T13:10:37.718Z,4.40
2022-07-31T13:11:45.997Z,4.70
2022-07-31T13:12:38.735Z,4.50
2022-07-31T13:13:37.688Z,3.90
2022-07-31T13:14:37.677Z,3.80
2022-07-31T13:15:37.668Z,3.30
2022-07-31T13:16:37.658Z,3.20
2022-07-31T13:17:41.050Z,3.30
2022-07-31T13:18:37.636Z,3.10